Time;durP1;ratioP1;P1;durP2;ratioP2;P2;SDS_P1;SDS_P2;PMS_P1;PMS_P2;Temp;Humidity;BMP_temperature;BMP_pressure;BME280_temperature;BME280_humidity;BME280_pressure;Samples;Min_cycle;Max_cycle;Signal;HPM_P1;HPM_P2
2021/05/28 00:00:03;;;;;;;;;;;;;;;20.65;54.88;101333.50;2106065;28;4016;-31
2021/05/28 00:01:04;;;;;;;;;;;;;;;20.66;54.83;101329.47;2104862;28;3903;-29
2021/05/28 00:02:05;;;;;;;;;;;;;;;20.65;55.02;101328.66;2103907;28;4243;-30
2021/05/28 00:03:06;;;;;;;;;;;;;;;20.66;54.96;101327.47;2105114;28;4175;-29
2021/05/28 00:04:07;;;;;;;;;;;;;;;20.66;54.87;101330.31;2104102;28;3864;-30
2021/05/28 00:05:09;;;;;;;;;;;;;;;20.67;54.93;101333.97;2104469;28;4032;-33
2021/05/28 00:06:10;;;;;;;;;;;;;;;20.66;54.98;101326.66;2104947;28;4013;-31
2021/05/28 00:07:11;;;;;;;;;;;;;;;20.66;54.88;101338.84;2104969;28;4071;-27
2021/05/28 00:08:12;;;;;;;;;;;;;;;20.66;54.87;101341.69;2104359;28;4227;-27
2021/05/28 00:09:14;;;;;;;;;;;;;;;20.65;55.04;101342.88;2104971;28;4005;-30
2021/05/28 00:10:15;;;;;;;;;;;;;;;20.65;54.80;101340.03;2105558;28;3988;-30
2021/05/28 00:11:16;;;;;;;;;;;;;;;20.65;54.91;101344.88;2106421;28;4007;-28
2021/05/28 00:12:17;;;;;;;;;;;;;;;20.64;54.93;101341.19;2105016;28;4028;-29
2021/05/28 00:13:19;;;;;;;;;;;;;;;20.64;54.89;101346.88;2105402;28;4009;-31
2021/05/28 00:14:20;;;;;;;;;;;;;;;20.65;54.95;101353.41;2105230;28;3944;-28
2021/05/28 00:15:21;;;;;;;;;;;;;;;20.64;54.91;101346.88;2105389;28;4122;-30
2021/05/28 00:16:24;;;;;;;;;;;;;;;20.65;54.86;101344.88;2104906;28;4100;-32
2021/05/28 00:17:25;;;;;;;;;;;;;;;20.65;54.84;101351.41;2105888;28;3959;-31
2021/05/28 00:18:27;;;;;;;;;;;;;;;20.65;54.89;101354.25;2104881;28;3988;-31
2021/05/28 00:19:28;;;;;;;;;;;;;;;20.64;54.89;101346.88;2105206;28;3997;-33
2021/05/28 00:20:29;;;;;;;;;;;;;;;20.64;54.89;101352.56;2103298;28;3954;-29
2021/05/28 00:21:30;;;;;;;;;;;;;;;20.66;54.75;101355.06;2105132;28;3989;-28
2021/05/28 00:22:31;;;;;;;;;;;;;;;20.64;54.72;101349.72;2094020;28;3999;-31
2021/05/28 00:23:33;;;;;;;;;;;;;;;20.63;54.91;101345.22;2095919;28;3874;-32
2021/05/28 00:24:34;;;;;;;;;;;;;;;20.63;54.77;101348.06;2104235;28;3990;-28
2021/05/28 00:25:35;;;;;;;;;;;;;;;20.63;54.89;101347.22;2104368;28;5007;-28
2021/05/28 00:26:37;;;;;;;;;;;;;;;20.63;54.87;101355.75;2103860;28;4031;-29
2021/05/28 00:27:38;;;;;;;;;;;;;;;20.63;54.87;101345.22;2104325;28;4114;-30
2021/05/28 00:28:40;;;;;;;;;;;;;;;20.63;54.80;101356.59;2104942;28;4067;-28
2021/05/28 00:29:41;;;;;;;;;;;;;;;20.64;54.81;101351.72;2105232;28;4034;-27
2021/05/28 00:30:42;;;;;;;;;;;;;;;20.63;55.03;101350.06;2104833;28;4089;-29
2021/05/28 00:31:43;;;;;;;;;;;;;;;20.62;55.01;101349.22;2105850;28;4060;-28
2021/05/28 00:32:45;;;;;;;;;;;;;;;20.62;54.77;101349.22;2105185;28;4060;-31
2021/05/28 00:33:46;;;;;;;;;;;;;;;20.63;54.82;101355.75;2104572;28;3902;-31
2021/05/28 00:34:49;;;;;;;;;;;;;;;20.61;55.06;101353.22;2105478;28;3915;-30
2021/05/28 00:35:51;;;;;;;;;;;;;;;20.62;54.88;101354.94;2104429;28;4447;-31
2021/05/28 00:36:52;;;;;;;;;;;;;;;20.63;54.86;101348.06;2105490;28;4011;-28
2021/05/28 00:37:53;;;;;;;;;;;;;;;20.62;54.81;101352.09;2106214;28;4058;-28
2021/05/28 00:38:54;;;;;;;;;;;;;;;20.63;54.89;101353.75;2104342;28;4003;-30
2021/05/28 00:39:56;;;;;;;;;;;;;;;20.63;54.92;101347.22;2103633;28;4061;-29
2021/05/28 00:40:57;;;;;;;;;;;;;;;20.63;54.91;101358.59;2104227;28;4053;-28
2021/05/28 00:41:58;;;;;;;;;;;;;;;20.63;55.04;101359.41;2104084;28;4175;-28
2021/05/28 00:42:59;;;;;;;;;;;;;;;20.64;54.93;101354.56;2105332;28;4085;-30
2021/05/28 00:44:00;;;;;;;;;;;;;;;20.63;54.82;101355.75;2104165;28;4043;-30
2021/05/28 00:45:03;;;;;;;;;;;;;;;20.62;54.90;101362.59;2104847;28;4032;-28
2021/05/28 00:46:04;;;;;;;;;;;;;;;20.62;54.94;101357.75;2105023;28;3904;-32
2021/05/28 00:47:05;;;;;;;;;;;;;;;20.63;55.10;101352.91;2103723;28;4043;-30
2021/05/28 00:48:07;;;;;;;;;;;;;;;20.63;55.12;101355.75;2104122;28;3892;-29
2021/05/28 00:49:08;;;;;;;;;;;;;;;20.62;54.93;101360.59;2102985;28;4262;-31
2021/05/28 00:50:09;;;;;;;;;;;;;;;20.63;54.87;101361.44;2103381;28;4097;-30
2021/05/28 00:51:10;;;;;;;;;;;;;;;20.63;55.03;101369.97;2103013;28;3866;-28
2021/05/28 00:52:12;;;;;;;;;;;;;;;20.62;54.84;101368.28;2103505;28;3875;-30
2021/05/28 00:53:13;;;;;;;;;;;;;;;20.62;54.95;101368.28;2104133;28;3894;-29
2021/05/28 00:54:14;;;;;;;;;;;;;;;20.62;54.96;101365.44;2103204;28;4025;-33
2021/05/28 00:55:15;;;;;;;;;;;;;;;20.62;54.85;101362.59;2104164;28;4070;-32
2021/05/28 00:56:16;;;;;;;;;;;;;;;20.62;54.84;101369.13;2104522;28;4008;-28
2021/05/28 00:57:19;;;;;;;;;;;;;;;20.62;54.88;101377.66;2103560;28;4029;-30
2021/05/28 00:58:20;;;;;;;;;;;;;;;20.64;55.52;101372.47;2104925;28;4003;-29
2021/05/28 00:59:22;;;;;;;;;;;;;;;20.64;55.21;101374.47;2104183;28;4128;-32
2021/05/28 01:00:24;;;;;;;;;;;;;;;20.62;55.18;101377.66;2102850;28;4044;-31
2021/05/28 01:01:26;;;;;;;;;;;;;;;20.62;55.08;101371.13;2104670;28;4584;-30
2021/05/28 01:02:27;;;;;;;;;;;;;;;20.61;55.04;101375.16;2105181;28;4052;-31
2021/05/28 01:03:28;;;;;;;;;;;;;;;20.61;55.05;101375.16;2103029;28;3802;-30
2021/05/28 01:04:30;;;;;;;;;;;;;;;20.61;55.06;101378.00;2104762;28;4010;-30
2021/05/28 01:05:32;;;;;;;;;;;;;;;20.62;54.99;101376.81;2105660;28;3853;-31
2021/05/28 01:06:33;;;;;;;;;;;;;;;20.62;55.14;101382.50;2105308;28;3971;-30
2021/05/28 01:07:34;;;;;;;;;;;;;;;20.61;55.24;101378.81;2104354;28;5996;-31
2021/05/28 01:08:35;;;;;;;;;;;;;;;20.62;55.04;101379.66;2103752;28;4878;-33
2021/05/28 01:09:37;;;;;;;;;;;;;;;20.61;55.13;101375.97;2104299;28;4069;-29
2021/05/28 01:10:38;;;;;;;;;;;;;;;20.63;55.17;101378.50;2104568;28;3875;-28
2021/05/28 01:11:39;;;;;;;;;;;;;;;20.61;55.26;101375.97;2105474;28;3853;-31
2021/05/28 01:12:40;;;;;;;;;;;;;;;20.61;55.18;101375.97;2104569;28;4116;-29
2021/05/28 01:13:42;;;;;;;;;;;;;;;20.63;55.12;101378.50;2104706;28;4076;-30
2021/05/28 01:14:44;;;;;;;;;;;;;;;20.63;55.05;101385.00;2105661;28;3876;-29
2021/05/28 01:15:45;;;;;;;;;;;;;;;20.62;55.01;101383.34;2103976;28;4062;-30
2021/05/28 01:16:46;;;;;;;;;;;;;;;20.62;55.20;101389.03;2105524;28;4072;-31
2021/05/28 01:22:59;;;;;;;;;;;;;;;20.63;55.01;101387.03;2087951;28;4042;-28
2021/05/28 01:24:00;;;;;;;;;;;;;;;20.62;55.19;101380.50;2111531;22;18768;-79
2021/05/28 01:25:01;;;;;;;;;;;;;;;20.62;55.18;101380.50;2091180;28;3881;-78
2021/05/28 01:26:03;;;;;;;;;;;;;;;20.62;55.13;101383.34;2095367;28;3908;-78
2021/05/28 01:27:04;;;;;;;;;;;;;;;20.63;55.00;101381.34;2087051;28;4540;-79
2021/05/28 01:28:05;;;;;;;;;;;;;;;20.62;55.14;101386.19;2092726;28;4449;-79
2021/05/28 01:29:07;;;;;;;;;;;;;;;20.63;55.19;101385.00;2090352;28;3894;-86
2021/05/28 01:30:08;;;;;;;;;;;;;;;20.63;55.14;101382.16;2094735;28;4017;-79
2021/05/28 01:31:10;;;;;;;;;;;;;;;20.64;55.16;101389.50;2095814;28;3878;-78
2021/05/28 01:32:11;;;;;;;;;;;;;;;20.64;55.29;101388.69;2095035;28;3851;-79
2021/05/28 01:33:12;;;;;;;;;;;;;;;20.65;55.13;101393.22;2097482;28;5110;-79
2021/05/28 01:34:13;;;;;;;;;;;;;;;20.65;55.07;101393.22;2095234;28;4063;-77
2021/05/28 01:35:15;;;;;;;;;;;;;;;20.64;55.08;101391.53;2097253;28;4054;-80
2021/05/28 01:36:16;;;;;;;;;;;;;;;20.63;55.14;101393.53;2096632;28;3834;-79
2021/05/28 01:37:17;;;;;;;;;;;;;;;20.63;55.14;101396.38;2096736;28;3953;-77
2021/05/28 01:38:18;;;;;;;;;;;;;;;20.64;55.24;101400.88;2097715;28;3834;-78
2021/05/28 01:39:20;;;;;;;;;;;;;;;20.64;55.14;101402.91;2094629;28;3847;-79
2021/05/28 01:40:21;;;;;;;;;;;;;;;20.64;55.01;101397.22;2097468;28;3988;-80
2021/05/28 01:41:22;;;;;;;;;;;;;;;20.63;55.08;101393.53;2098024;28;3958;-79
2021/05/28 01:42:24;;;;;;;;;;;;;;;20.63;55.02;101396.38;2094763;28;3877;-79
2021/05/28 01:43:25;;;;;;;;;;;;;;;20.64;55.08;101398.03;2096516;28;3865;-80
2021/05/28 01:44:26;;;;;;;;;;;;;;;20.64;55.15;101409.41;2096142;28;4012;-79
2021/05/28 01:45:27;;;;;;;;;;;;;;;20.65;55.07;101404.59;2096345;28;3841;-80
2021/05/28 01:46:29;;;;;;;;;;;;;;;20.65;55.14;101404.59;2097549;28;3949;-81
2021/05/28 01:47:30;;;;;;;;;;;;;;;20.64;55.17;101406.56;2096895;28;4062;-80
2021/05/28 01:48:31;;;;;;;;;;;;;;;20.65;55.06;101411.09;2096066;28;4279;-79
2021/05/28 01:49:33;;;;;;;;;;;;;;;20.64;54.89;101403.72;2097240;28;3943;-79
2021/05/28 01:50:43;;;;;;;;;;;;;;;20.65;55.13;101410.28;2096800;28;3803;-80
2021/05/28 01:51:44;;;;;;;;;;;;;;;20.64;54.97;101412.25;2094178;28;3992;-80
2021/05/28 01:52:46;;;;;;;;;;;;;;;20.65;54.97;101407.44;2094232;28;4097;-79
2021/05/28 01:53:47;;;;;;;;;;;;;;;20.65;55.02;101416.78;2096472;28;4170;-79
2021/05/28 01:54:48;;;;;;;;;;;;;;;20.65;55.13;101410.28;2098073;28;3877;-79
2021/05/28 01:55:49;;;;;;;;;;;;;;;20.65;55.12;101413.13;2096742;28;4064;-80
2021/05/28 01:56:51;;;;;;;;;;;;;;;20.65;54.94;101407.44;2097799;28;3973;-79
2021/05/28 01:57:52;;;;;;;;;;;;;;;20.65;54.95;101413.13;2097122;28;4007;-80
2021/05/28 01:58:53;;;;;;;;;;;;;;;20.64;54.96;101409.41;2097176;28;4017;-77
2021/05/28 01:59:54;;;;;;;;;;;;;;;20.65;54.98;101419.63;2095817;28;3836;-81
2021/05/28 02:00:56;;;;;;;;;;;;;;;20.66;55.06;101414.78;2098170;28;3841;-80
2021/05/28 02:01:58;;;;;;;;;;;;;;;20.66;55.00;101411.94;2098411;28;3857;-83
2021/05/28 02:02:59;;;;;;;;;;;;;;;20.66;54.89;101409.09;2097381;28;4163;-80
2021/05/28 02:04:00;;;;;;;;;;;;;;;20.65;54.85;101416.78;2095844;28;4000;-86
2021/05/28 02:05:01;;;;;;;;;;;;;;;20.65;54.87;101411.09;2097964;28;4066;-88
2021/05/28 02:06:03;;;;;;;;;;;;;;;20.66;54.92;101417.63;2097182;28;3841;-83
2021/05/28 02:07:04;;;;;;;;;;;;;;;20.65;55.09;101411.09;2097923;28;3940;-81
2021/05/28 02:08:05;;;;;;;;;;;;;;;20.66;54.94;101417.63;2096024;28;4041;-78
2021/05/28 02:09:06;;;;;;;;;;;;;;;20.66;55.05;101415.59;2095307;28;3885;-83
2021/05/28 02:10:08;;;;;;;;;;;;;;;20.67;55.14;101413.59;2096413;28;5197;-85
2021/05/28 02:11:09;;;;;;;;;;;;;;;20.66;55.13;101415.59;2098329;28;3925;-86
2021/05/28 02:12:10;;;;;;;;;;;;;;;20.66;54.94;101417.63;2097920;28;4017;-79
2021/05/28 02:13:11;;;;;;;;;;;;;;;20.66;55.00;101411.94;2098079;28;4003;-80
2021/05/28 02:14:12;;;;;;;;;;;;;;;20.66;54.92;101417.63;2095687;28;4246;-79
2021/05/28 02:15:14;;;;;;;;;;;;;;;20.65;55.08;101422.47;2095933;28;4082;-79
2021/05/28 02:16:15;;;;;;;;;;;;;;;20.65;54.98;101416.78;2097445;28;4008;-79
2021/05/28 02:17:16;;;;;;;;;;;;;;;20.66;54.92;101418.44;2097318;28;4012;-80
2021/05/28 02:18:17;;;;;;;;;;;;;;;20.66;55.08;101423.31;2097720;28;4083;-79
2021/05/28 02:19:20;;;;;;;;;;;;;;;20.66;54.91;101415.59;2095556;28;3952;-79
2021/05/28 02:20:21;;;;;;;;;;;;;;;20.66;55.07;101417.63;2096045;28;3999;-80
2021/05/28 02:21:22;;;;;;;;;;;;;;;20.66;55.09;101423.31;2094843;28;4000;-80
2021/05/28 02:22:23;;;;;;;;;;;;;;;20.66;55.03;101424.13;2094597;28;4007;-80
2021/05/28 02:23:25;;;;;;;;;;;;;;;20.66;55.04;101426.97;2096796;28;3873;-80
2021/05/28 02:24:27;;;;;;;;;;;;;;;20.66;55.00;101426.16;2079326;28;3990;-81
2021/05/28 02:25:28;;;;;;;;;;;;;;;20.67;55.04;101436.34;2077885;28;3809;-80
2021/05/28 02:26:29;;;;;;;;;;;;;;;20.66;55.06;101429.81;2087905;28;5364;-80
2021/05/28 02:27:30;;;;;;;;;;;;;;;20.67;55.02;101424.97;2088343;28;4015;-80
2021/05/28 02:28:31;;;;;;;;;;;;;;;20.67;54.84;101422.13;2089206;28;3943;-80
2021/05/28 02:29:33;;;;;;;;;;;;;;;20.67;54.92;101422.13;2086800;28;3712;-80
2021/05/28 02:30:34;;;;;;;;;;;;;;;20.66;54.89;101424.13;2087119;28;3970;-81
2021/05/28 02:31:35;;;;;;;;;;;;;;;20.67;54.92;101442.03;2089124;28;4621;-78
2021/05/28 02:32:36;;;;;;;;;;;;;;;20.68;54.85;101432.34;2088468;28;3944;-78
2021/05/28 02:33:38;;;;;;;;;;;;;;;20.67;54.91;101425.81;2088177;28;5100;-79
2021/05/28 02:34:39;;;;;;;;;;;;;;;20.66;54.98;101432.66;2087798;28;4070;-79
2021/05/28 02:35:41;;;;;;;;;;;;;;;20.67;55.03;101428.63;2088935;28;3998;-78
2021/05/28 02:36:42;;;;;;;;;;;;;;;20.67;54.96;101425.81;2089128;28;4081;-80
2021/05/28 02:37:43;;;;;;;;;;;;;;;20.67;55.00;101424.97;2079808;28;3891;-77
2021/05/28 02:38:44;;;;;;;;;;;;;;;20.68;55.04;101429.50;2078273;28;4005;-79
2021/05/28 02:39:45;;;;;;;;;;;;;;;20.68;54.99;101429.50;2089160;28;3921;-78
2021/05/28 02:40:47;;;;;;;;;;;;;;;20.67;54.97;101437.16;2087512;28;4086;-78
2021/05/28 02:41:48;;;;;;;;;;;;;;;20.67;55.08;101436.34;2088624;28;4004;-79
2021/05/28 02:42:49;;;;;;;;;;;;;;;20.67;54.88;101437.16;2089317;28;3874;-83
2021/05/28 02:43:50;;;;;;;;;;;;;;;20.67;54.99;101437.16;2087532;28;3913;-77
2021/05/28 02:44:53;;;;;;;;;;;;;;;20.68;54.98;101435.19;2087698;28;3831;-76
2021/05/28 02:45:54;;;;;;;;;;;;;;;20.68;54.83;101438.03;2087877;28;3857;-77
2021/05/28 02:46:55;;;;;;;;;;;;;;;20.68;54.97;101440.88;2089017;28;3996;-76
2021/05/28 02:47:58;;;;;;;;;;;;;;;20.68;54.93;101440.88;2087044;28;3997;-77
2021/05/28 02:48:59;;;;;;;;;;;;;;;20.69;54.86;101439.69;2088706;28;3857;-79
2021/05/28 02:50:00;;;;;;;;;;;;;;;20.69;54.81;101445.38;2086302;28;4014;-81
2021/05/28 02:51:02;;;;;;;;;;;;;;;20.67;55.01;101445.69;2087418;28;4075;-79
2021/05/28 02:52:03;;;;;;;;;;;;;;;20.68;54.81;101440.88;2088862;28;4043;-80
2021/05/28 02:53:04;;;;;;;;;;;;;;;20.68;54.90;101443.72;2087009;28;4000;-76
2021/05/28 02:54:06;;;;;;;;;;;;;;;20.68;54.96;101440.88;2086599;28;3972;-78
2021/05/28 02:55:07;;;;;;;;;;;;;;;20.68;54.83;101440.88;2088352;28;3923;-78
2021/05/28 02:56:08;;;;;;;;;;;;;;;20.69;54.82;101445.38;2088959;28;3997;-79
2021/05/28 02:57:09;;;;;;;;;;;;;;;20.68;55.01;101444.56;2089532;28;5182;-80
2021/05/28 02:58:11;;;;;;;;;;;;;;;20.68;54.82;101449.41;2090673;28;3826;-80
2021/05/28 02:59:12;;;;;;;;;;;;;;;20.68;54.94;101453.09;2089183;28;4061;-81
2021/05/28 03:00:13;;;;;;;;;;;;;;;20.69;54.84;101445.38;2090262;28;4019;-83
2021/05/28 03:01:14;;;;;;;;;;;;;;;20.68;54.83;101452.25;2088377;28;4062;-83
2021/05/28 03:02:18;;;;;;;;;;;;;;;20.68;54.87;101449.41;2090660;28;4041;-83
2021/05/28 03:03:19;;;;;;;;;;;;;;;20.68;54.86;101444.56;2089630;28;3995;-82
2021/05/28 03:04:20;;;;;;;;;;;;;;;20.69;54.94;101456.75;2089421;28;4126;-80
2021/05/28 03:05:21;;;;;;;;;;;;;;;20.68;54.85;101447.38;2087554;28;4102;-81
2021/05/28 03:06:22;;;;;;;;;;;;;;;20.69;54.95;101451.06;2090148;28;4356;-82
2021/05/28 03:07:24;;;;;;;;;;;;;;;20.69;54.85;101453.91;2089958;28;3950;-82
2021/05/28 03:08:26;;;;;;;;;;;;;;;20.67;54.98;101448.53;2090130;28;3960;-84
2021/05/28 03:09:27;;;;;;;;;;;;;;;20.68;54.89;101453.09;2089359;28;4116;-84
2021/05/28 03:10:28;;;;;;;;;;;;;;;20.69;54.97;101453.91;2089196;28;4016;-82
2021/05/28 03:11:30;;;;;;;;;;;;;;;20.68;54.86;101455.91;2089302;28;3985;-82
2021/05/28 03:12:31;;;;;;;;;;;;;;;20.69;54.98;101451.06;2090347;28;3983;-82
2021/05/28 03:13:32;;;;;;;;;;;;;;;20.68;54.93;101455.09;2090130;28;4118;-84
2021/05/28 03:14:33;;;;;;;;;;;;;;;20.69;54.87;101456.75;2089451;28;3936;-84
2021/05/28 03:15:35;;;;;;;;;;;;;;;20.68;54.81;101458.78;2088336;28;4119;-83
2021/05/28 03:16:36;;;;;;;;;;;;;;;20.68;54.83;101450.25;2090574;28;4812;-83
2021/05/28 03:17:41;;;;;;;;;;;;;;;20.68;54.94;101461.59;2087237;28;3843;-86
2021/05/28 03:18:48;;;;;;;;;;;;;;;20.68;54.75;101463.63;2091995;28;3840;-85
2021/05/28 03:19:50;;;;;;;;;;;;;;;20.69;54.79;101462.44;2089213;28;4004;-85
2021/05/28 03:21:15;;;;;;;;;;;;;;;20.68;54.91;101467.28;2091559;28;4032;-84
2021/05/28 03:22:34;;;;;;;;;;;;;;;20.69;54.81;101465.28;2089759;28;4041;-85
2021/05/28 03:23:36;;;;;;;;;;;;;;;20.69;54.74;101465.28;2090259;28;3862;-80
2021/05/28 03:24:37;;;;;;;;;;;;;;;20.69;54.94;101470.97;2095570;28;4005;-82
2021/05/28 03:25:39;;;;;;;;;;;;;;;20.69;54.76;101476.66;2097576;28;4069;-80
2021/05/28 03:26:41;;;;;;;;;;;;;;;20.69;54.70;101479.50;2097155;28;3749;-79
2021/05/28 03:27:43;;;;;;;;;;;;;;;20.69;54.71;101471.81;2097096;28;4081;-82
2021/05/28 03:28:44;;;;;;;;;;;;;;;20.69;54.71;101479.50;2088529;28;3922;-80
2021/05/28 03:29:45;;;;;;;;;;;;;;;20.69;54.80;101476.66;2086545;28;3919;-78
2021/05/28 03:30:46;;;;;;;;;;;;;;;20.69;54.77;101482.34;2097548;28;3899;-78
2021/05/28 03:31:48;;;;;;;;;;;;;;;20.68;54.66;101481.50;2098398;28;3924;-78
2021/05/28 03:32:49;;;;;;;;;;;;;;;20.68;54.81;101478.66;2096814;28;3882;-78
2021/05/28 03:33:50;;;;;;;;;;;;;;;20.70;54.85;101481.16;2095150;28;6180;-78
2021/05/28 03:34:52;;;;;;;;;;;;;;;20.68;54.75;101478.66;2098429;28;4937;-78
2021/05/28 03:35:53;;;;;;;;;;;;;;;20.69;54.81;101482.34;2097729;28;3773;-77
2021/05/28 03:36:55;;;;;;;;;;;;;;;20.70;54.77;101486.84;2098765;28;3884;-77
2021/05/28 03:37:56;;;;;;;;;;;;;;;20.69;54.60;101488.03;2097811;28;4967;-77
2021/05/28 03:38:57;;;;;;;;;;;;;;;20.68;54.66;101480.69;2097648;28;3906;-77
2021/05/28 03:39:58;;;;;;;;;;;;;;;20.68;54.79;101486.38;2097737;28;3934;-77
2021/05/28 03:41:00;;;;;;;;;;;;;;;20.69;54.64;101482.34;2097665;28;3753;-77
2021/05/28 03:42:02;;;;;;;;;;;;;;;20.69;54.81;101482.34;2088016;28;3762;-77
2021/05/28 03:43:03;;;;;;;;;;;;;;;20.68;54.55;101484.34;2089535;28;3962;-77
2021/05/28 03:44:04;;;;;;;;;;;;;;;20.69;54.56;101490.88;2097307;28;3884;-77
2021/05/28 03:45:06;;;;;;;;;;;;;;;20.69;54.70;101488.03;2098109;28;3924;-77
2021/05/28 03:46:07;;;;;;;;;;;;;;;20.69;54.76;101488.03;2096110;28;3758;-77
2021/05/28 03:47:08;;;;;;;;;;;;;;;20.69;54.85;101485.19;2098169;28;3783;-76
2021/05/28 03:48:09;;;;;;;;;;;;;;;20.68;54.74;101478.66;2097590;28;3759;-77
2021/05/28 03:49:10;;;;;;;;;;;;;;;20.69;54.58;101486.00;2097451;28;3959;-76
2021/05/28 03:50:12;;;;;;;;;;;;;;;20.69;54.58;101485.19;2097489;28;3811;-76
2021/05/28 03:51:13;;;;;;;;;;;;;;;20.69;54.73;101491.72;2098307;28;3885;-75
2021/05/28 03:52:15;;;;;;;;;;;;;;;20.70;54.75;101486.84;2097595;28;3972;-77
2021/05/28 03:53:19;;;;;;;;;;;;;;;20.69;54.58;101488.03;2097136;28;3814;-77
2021/05/28 03:54:21;;;;;;;;;;;;;;;20.70;54.82;101492.53;2097109;28;3894;-77
2021/05/28 03:55:22;;;;;;;;;;;;;;;20.71;54.63;101494.22;2098391;28;4157;-77
2021/05/28 03:56:23;;;;;;;;;;;;;;;20.70;54.63;101495.38;2096438;28;3989;-76
2021/05/28 03:57:25;;;;;;;;;;;;;;;20.69;54.80;101491.72;2097923;28;4316;-77
2021/05/28 03:58:28;;;;;;;;;;;;;;;20.69;54.71;101494.53;2097332;28;4341;-78
2021/05/28 03:59:30;;;;;;;;;;;;;;;20.70;54.62;101495.38;2098262;28;4098;-77
2021/05/28 04:00:31;;;;;;;;;;;;;;;20.69;54.61;101493.72;2097658;28;3888;-77
2021/05/28 04:01:32;;;;;;;;;;;;;;;20.69;54.77;101494.53;2096732;28;4386;-78
2021/05/28 04:02:33;;;;;;;;;;;;;;;20.70;54.73;101495.38;2096224;28;4011;-78
2021/05/28 04:03:35;;;;;;;;;;;;;;;20.70;54.75;101495.38;2094459;28;3827;-78
2021/05/28 04:04:36;;;;;;;;;;;;;;;20.70;54.61;101492.53;2094401;28;4605;-77
2021/05/28 04:05:37;;;;;;;;;;;;;;;20.71;54.52;101497.06;2098441;28;3842;-79
2021/05/28 04:06:39;;;;;;;;;;;;;;;20.71;54.78;101499.09;2098245;28;4008;-77
2021/05/28 04:07:40;;;;;;;;;;;;;;;20.70;54.81;101492.53;2097478;28;3863;-78
2021/05/28 04:08:41;;;;;;;;;;;;;;;20.70;54.52;101492.53;2095722;28;5142;-78
2021/05/28 04:09:42;;;;;;;;;;;;;;;20.70;54.72;101495.38;2094820;28;4147;-78
2021/05/28 04:10:43;;;;;;;;;;;;;;;20.70;54.57;101498.22;2098565;28;3848;-78
2021/05/28 04:11:45;;;;;;;;;;;;;;;20.70;54.76;101503.91;2097835;28;4067;-78
2021/05/28 04:12:46;;;;;;;;;;;;;;;20.71;54.62;101499.09;2097876;28;4046;-79
2021/05/28 04:13:47;;;;;;;;;;;;;;;20.71;54.61;101505.59;2097343;28;4029;-78
2021/05/28 04:14:48;;;;;;;;;;;;;;;20.70;54.70;101495.38;2096456;28;3864;-77
2021/05/28 04:15:50;;;;;;;;;;;;;;;20.71;54.63;101507.63;2098094;28;3971;-77
2021/05/28 04:16:51;;;;;;;;;;;;;;;20.71;54.72;101504.78;2098430;28;4030;-75
2021/05/28 04:17:52;;;;;;;;;;;;;;;20.71;54.71;101504.78;2096196;28;3997;-76
2021/05/28 04:18:54;;;;;;;;;;;;;;;20.71;54.70;101499.09;2095090;28;4056;-75
2021/05/28 04:19:55;;;;;;;;;;;;;;;20.71;54.76;101505.59;2097653;28;3961;-76
2021/05/28 04:20:58;;;;;;;;;;;;;;;20.71;54.63;101508.44;2097356;28;4020;-76
2021/05/28 04:21:59;;;;;;;;;;;;;;;20.71;54.72;101505.59;2098001;28;3984;-76
2021/05/28 04:23:00;;;;;;;;;;;;;;;20.71;54.75;101504.78;2096698;28;3819;-76
2021/05/28 04:24:02;;;;;;;;;;;;;;;20.72;54.59;101507.25;2095324;28;4042;-75
2021/05/28 04:25:03;;;;;;;;;;;;;;;20.72;54.74;101506.44;2097474;28;3965;-76
2021/05/28 04:26:04;;;;;;;;;;;;;;;20.71;54.72;101507.63;2097456;28;4010;-75
2021/05/28 04:27:05;;;;;;;;;;;;;;;20.72;54.66;101510.09;2096881;28;3850;-76
2021/05/28 04:28:07;;;;;;;;;;;;;;;20.72;54.77;101512.13;2093870;28;4019;-75
2021/05/28 04:29:08;;;;;;;;;;;;;;;20.71;54.73;101514.13;2096754;28;4048;-78
2021/05/28 04:30:09;;;;;;;;;;;;;;;20.72;54.63;101510.09;2095140;28;3846;-80
2021/05/28 04:31:10;;;;;;;;;;;;;;;20.72;54.63;101515.78;2094852;28;3976;-81
2021/05/28 04:32:11;;;;;;;;;;;;;;;20.72;54.67;101512.94;2094644;28;4022;-82
2021/05/28 04:33:13;;;;;;;;;;;;;;;20.72;54.60;101509.28;2095314;28;3845;-78
2021/05/28 04:34:14;;;;;;;;;;;;;;;20.72;54.72;101509.28;2094554;28;4170;-79
2021/05/28 04:35:15;;;;;;;;;;;;;;;20.72;54.80;101515.78;2095415;28;3989;-76
2021/05/28 04:36:16;;;;;;;;;;;;;;;20.71;54.59;101505.59;2095018;28;4013;-78
2021/05/28 04:37:17;;;;;;;;;;;;;;;20.71;54.75;101511.28;2094830;28;3903;-79
2021/05/28 04:38:19;;;;;;;;;;;;;;;20.71;54.68;101514.13;2094838;28;3884;-78
2021/05/28 04:39:20;;;;;;;;;;;;;;;20.72;54.67;101517.81;2094959;28;5044;-78
2021/05/28 04:40:21;;;;;;;;;;;;;;;20.71;54.82;101502.75;2095020;28;4047;-83
2021/05/28 04:41:22;;;;;;;;;;;;;;;20.72;54.78;101517.81;2094695;28;3840;-84
2021/05/28 04:42:24;;;;;;;;;;;;;;;20.72;54.76;101512.94;2093898;28;3819;-81
2021/05/28 04:43:25;;;;;;;;;;;;;;;20.72;54.64;101515.78;2095446;28;3960;-82
2021/05/28 04:44:26;;;;;;;;;;;;;;;20.73;54.65;101516.63;2095453;28;4060;-83
2021/05/28 04:45:27;;;;;;;;;;;;;;;20.72;54.78;101512.94;2094196;28;4047;-82
2021/05/28 04:46:28;;;;;;;;;;;;;;;20.72;54.62;101512.94;2094608;28;3940;-83
2021/05/28 04:47:30;;;;;;;;;;;;;;;20.71;54.88;101514.13;2093701;28;3826;-83
2021/05/28 04:48:31;;;;;;;;;;;;;;;20.73;54.82;101522.31;2094228;28;3847;-76
2021/05/28 04:49:32;;;;;;;;;;;;;;;20.73;54.93;101525.16;2094493;28;3853;-83
2021/05/28 04:50:36;;;;;;;;;;;;;;;20.73;54.70;101533.69;2095054;28;3772;-85
2021/05/28 04:51:37;;;;;;;;;;;;;;;20.73;54.83;101528.00;2095076;28;4720;-83
2021/05/28 04:52:38;;;;;;;;;;;;;;;20.72;54.58;101520.66;2094645;28;4027;-83
2021/05/28 04:53:40;;;;;;;;;;;;;;;20.72;54.81;101527.16;2096641;28;4181;-84
2021/05/28 04:54:41;;;;;;;;;;;;;;;20.72;54.78;101530.00;2094869;28;4043;-82
2021/05/28 04:55:42;;;;;;;;;;;;;;;20.72;54.64;101524.31;2095014;28;3939;-83
2021/05/28 04:56:44;;;;;;;;;;;;;;;20.72;54.75;101535.69;2096746;28;3844;-82
2021/05/28 04:57:45;;;;;;;;;;;;;;;20.72;54.78;101529.19;2098515;28;4039;-84
2021/05/28 04:58:46;;;;;;;;;;;;;;;20.73;54.68;101534.53;2094448;28;3943;-83
2021/05/28 04:59:47;;;;;;;;;;;;;;;20.73;54.67;101539.38;2096942;28;5076;-84
2021/05/28 05:00:49;;;;;;;;;;;;;;;20.73;54.70;101537.38;2093292;28;3940;-88
2021/05/28 05:01:50;;;;;;;;;;;;;;;20.72;54.83;101538.53;2095731;28;4010;-89
2021/05/28 05:02:51;;;;;;;;;;;;;;;20.73;54.85;101545.91;2096603;28;4005;-88
2021/05/28 05:03:52;;;;;;;;;;;;;;;20.72;54.71;101541.38;2097811;28;4077;-89
2021/05/28 05:04:54;;;;;;;;;;;;;;;20.73;54.66;101545.91;2098352;28;4063;-86
2021/05/28 05:05:55;;;;;;;;;;;;;;;20.72;54.81;101547.06;2098720;28;4014;-85
2021/05/28 05:06:56;;;;;;;;;;;;;;;20.74;54.67;101549.59;2099620;28;4117;-86
2021/05/28 05:07:57;;;;;;;;;;;;;;;20.73;54.67;101540.22;2098410;28;4026;-86
2021/05/28 05:08:59;;;;;;;;;;;;;;;20.74;54.75;101549.59;2098124;28;3829;-85
2021/05/28 05:10:01;;;;;;;;;;;;;;;20.74;54.75;101549.59;2098886;28;4353;-85
2021/05/28 05:11:02;;;;;;;;;;;;;;;20.74;54.68;101552.44;2098306;28;3996;-86
2021/05/28 05:12:04;;;;;;;;;;;;;;;20.73;54.76;101551.59;2098306;28;4466;-89
2021/05/28 05:13:05;;;;;;;;;;;;;;;20.73;54.66;101551.59;2099350;28;5261;-86
2021/05/28 05:14:06;;;;;;;;;;;;;;;20.73;54.83;101543.06;2099512;28;4005;-87
2021/05/28 05:15:07;;;;;;;;;;;;;;;20.74;54.71;101552.44;2100049;28;3862;-86
2021/05/28 05:16:09;;;;;;;;;;;;;;;20.73;54.66;101548.75;2097434;28;4037;-82
2021/05/28 05:17:10;;;;;;;;;;;;;;;20.74;54.84;101552.44;2095302;28;4017;-82
2021/05/28 05:18:11;;;;;;;;;;;;;;;20.73;54.79;101548.75;2094240;28;3842;-83
2021/05/28 05:19:12;;;;;;;;;;;;;;;20.73;54.66;101554.44;2096652;28;4069;-83
2021/05/28 05:20:13;;;;;;;;;;;;;;;20.73;54.73;101551.59;2095656;28;3982;-86
2021/05/28 05:21:15;;;;;;;;;;;;;;;20.73;54.72;101553.59;2096985;28;4009;-82
2021/05/28 05:22:16;;;;;;;;;;;;;;;20.73;54.68;101560.13;2095122;28;4034;-81
2021/05/28 05:23:18;;;;;;;;;;;;;;;20.74;54.69;101561.81;2097332;28;3909;-80
2021/05/28 05:24:19;;;;;;;;;;;;;;;20.74;54.79;101558.97;2092123;28;4084;-80
2021/05/28 05:25:21;;;;;;;;;;;;;;;20.74;54.67;101563.81;2096529;28;3998;-80